sensor_id;sensor_type;location;lat;lon;timestamp;pressure;altitude;pressure_sealevel;temperature;humidity
67738;BME280;54534;43.612;1.572;2022-11-20T00:01:34;99350.81;;;19.84;53.42
67738;BME280;54534;43.612;1.572;2022-11-20T00:03:59;99357.97;;;19.84;53.68
67738;BME280;54534;43.612;1.572;2022-11-20T00:06:26;99353.47;;;19.84;53.36
67738;BME280;54534;43.612;1.572;2022-11-20T00:08:57;99353.47;;;19.84;53.72
67738;BME280;54534;43.612;1.572;2022-11-20T00:11:24;99351.78;;;19.83;53.51
67738;BME280;54534;43.612;1.572;2022-11-20T00:13:52;99345.59;;;19.83;53.27
67738;BME280;54534;43.612;1.572;2022-11-20T00:16:21;99350.09;;;19.82;53.30
67738;BME280;54534;43.612;1.572;2022-11-20T00:18:47;99351.06;;;19.81;53.12
67738;BME280;54534;43.612;1.572;2022-11-20T00:21:18;99360.88;;;19.81;53.09
67738;BME280;54534;43.612;1.572;2022-11-20T00:23:44;99347.69;;;19.79;52.90
67738;BME280;54534;43.612;1.572;2022-11-20T00:26:13;99358.34;;;19.79;52.87
67738;BME280;54534;43.612;1.572;2022-11-20T00:28:39;99368.31;;;19.77;52.57
67738;BME280;54534;43.612;1.572;2022-11-20T00:31:10;99352.31;;;19.77;52.67
67738;BME280;54534;43.612;1.572;2022-11-20T00:33:36;99359.56;;;19.75;52.66
67738;BME280;54534;43.612;1.572;2022-11-20T00:36:10;99354.38;;;19.73;51.99
67738;BME280;54534;43.612;1.572;2022-11-20T00:38:36;99360.56;;;19.74;52.07
67738;BME280;54534;43.612;1.572;2022-11-20T00:41:07;99358.00;;;19.72;52.01
67738;BME280;54534;43.612;1.572;2022-11-20T00:43:33;99357.28;;;19.70;51.85
67738;BME280;54534;43.612;1.572;2022-11-20T00:45:59;99357.28;;;19.70;51.78
67738;BME280;54534;43.612;1.572;2022-11-20T00:48:25;99351.09;;;19.70;51.71
67738;BME280;54534;43.612;1.572;2022-11-20T00:50:50;99352.22;;;19.67;51.46
67738;BME280;54534;43.612;1.572;2022-11-20T00:53:16;99359.50;;;19.65;51.60
67738;BME280;54534;43.612;1.572;2022-11-20T00:55:41;99348.97;;;19.63;51.43
67738;BME280;54534;43.612;1.572;2022-11-20T00:58:06;99353.31;;;19.64;51.30
67738;BME280;54534;43.612;1.572;2022-11-20T01:00:32;99358.78;;;19.63;51.29
67738;BME280;54534;43.612;1.572;2022-11-20T01:02:57;99351.75;;;19.62;50.95
67738;BME280;54534;43.612;1.572;2022-11-20T01:05:23;99351.88;;;19.60;50.92
67738;BME280;54534;43.612;1.572;2022-11-20T01:07:48;99349.34;;;19.59;50.90
67738;BME280;54534;43.612;1.572;2022-11-20T01:10:13;99355.66;;;19.58;50.96
67738;BME280;54534;43.612;1.572;2022-11-20T01:12:39;99351.28;;;19.56;50.72
67738;BME280;54534;43.612;1.572;2022-11-20T01:15:04;99354.94;;;19.55;50.70
67738;BME280;54534;43.612;1.572;2022-11-20T01:17:31;99347.03;;;19.54;50.80
67738;BME280;54534;43.612;1.572;2022-11-20T01:19:57;99350.69;;;19.53;50.40
67738;BME280;54534;43.612;1.572;2022-11-20T01:22:22;99352.50;;;19.52;50.52
67738;BME280;54534;43.612;1.572;2022-11-20T01:24:47;99354.47;;;19.50;50.67
67738;BME280;54534;43.612;1.572;2022-11-20T01:27:13;99352.75;;;19.49;50.54
67738;BME280;54534;43.612;1.572;2022-11-20T01:29:38;99358.09;;;19.49;50.30
67738;BME280;54534;43.612;1.572;2022-11-20T01:32:04;99361.72;;;19.48;50.27
67738;BME280;54534;43.612;1.572;2022-11-20T01:34:29;99353.84;;;19.47;50.22
67738;BME280;54534;43.612;1.572;2022-11-20T01:36:55;99358.47;;;19.44;50.31
67738;BME280;54534;43.612;1.572;2022-11-20T01:39:23;99361.16;;;19.44;50.13
67738;BME280;54534;43.612;1.572;2022-11-20T01:41:50;99356.78;;;19.43;50.16
67738;BME280;54534;43.612;1.572;2022-11-20T01:47:14;99364.06;;;19.41;50.02
67738;BME280;54534;43.612;1.572;2022-11-20T01:49:46;99360.69;;;19.39;50.09
67738;BME280;54534;43.612;1.572;2022-11-20T01:52:26;99353.63;;;19.38;49.98
67738;BME280;54534;43.612;1.572;2022-11-20T01:55:13;99362.63;;;19.37;49.83
67738;BME280;54534;43.612;1.572;2022-11-20T01:57:40;99360.06;;;19.36;50.04
67738;BME280;54534;43.612;1.572;2022-11-20T02:00:12;99363.72;;;19.34;49.71
67738;BME280;54534;43.612;1.572;2022-11-20T02:02:39;99365.53;;;19.34;49.93
67738;BME280;54534;43.612;1.572;2022-11-20T02:05:20;99361.16;;;19.33;49.73
67738;BME280;54534;43.612;1.572;2022-11-20T02:07:48;99357.78;;;19.31;49.79
67738;BME280;54534;43.612;1.572;2022-11-20T02:10:14;99362.25;;;19.30;49.53
67738;BME280;54534;43.612;1.572;2022-11-20T02:12:39;99365.91;;;19.29;49.55
67738;BME280;54534;43.612;1.572;2022-11-20T02:15:23;99369.53;;;19.28;49.64
67738;BME280;54534;43.612;1.572;2022-11-20T02:17:50;99377.69;;;19.27;49.82
67738;BME280;54534;43.612;1.572;2022-11-20T02:20:15;99377.69;;;19.27;49.73
67738;BME280;54534;43.612;1.572;2022-11-20T02:22:48;99381.31;;;19.26;49.48
67738;BME280;54534;43.612;1.572;2022-11-20T02:25:16;99382.25;;;19.25;49.70
67738;BME280;54534;43.612;1.572;2022-11-20T02:27:43;99382.41;;;19.23;49.44
67738;BME280;54534;43.612;1.572;2022-11-20T02:30:09;99371.88;;;19.21;49.40
67738;BME280;54534;43.612;1.572;2022-11-20T02:32:36;99374.53;;;19.21;49.65
67738;BME280;54534;43.612;1.572;2022-11-20T02:37:51;99379.00;;;19.21;49.30
67738;BME280;54534;43.612;1.572;2022-11-20T02:40:18;99366.78;;;19.18;49.41
67738;BME280;54534;43.612;1.572;2022-11-20T02:42:43;99374.78;;;19.18;49.38
67738;BME280;54534;43.612;1.572;2022-11-20T02:45:09;99365.19;;;19.16;49.27
67738;BME280;54534;43.612;1.572;2022-11-20T02:47:35;99363.47;;;19.15;49.20
67738;BME280;54534;43.612;1.572;2022-11-20T02:50:00;99372.31;;;19.15;49.34
67738;BME280;54534;43.612;1.572;2022-11-20T02:52:25;99373.28;;;19.14;49.25
67738;BME280;54534;43.612;1.572;2022-11-20T02:54:51;99369.91;;;19.12;49.33
67738;BME280;54534;43.612;1.572;2022-11-20T02:57:16;99367.22;;;19.12;49.19
67738;BME280;54534;43.612;1.572;2022-11-20T02:59:42;99372.69;;;19.10;49.48
67738;BME280;54534;43.612;1.572;2022-11-20T03:02:07;99381.50;;;19.11;49.30
67738;BME280;54534;43.612;1.572;2022-11-20T03:04:33;99384.19;;;19.11;48.96
67738;BME280;54534;43.612;1.572;2022-11-20T03:06:58;99383.59;;;19.07;49.18
67738;BME280;54534;43.612;1.572;2022-11-20T03:09:23;99381.78;;;19.08;49.07
67738;BME280;54534;43.612;1.572;2022-11-20T03:11:49;99388.94;;;19.07;49.31
67738;BME280;54534;43.612;1.572;2022-11-20T03:14:14;99381.03;;;19.06;48.93
67738;BME280;54534;43.612;1.572;2022-11-20T03:16:40;99381.03;;;19.06;49.23
67738;BME280;54534;43.612;1.572;2022-11-20T03:19:06;99384.69;;;19.05;48.74
67738;BME280;54534;43.612;1.572;2022-11-20T03:21:33;99385.66;;;19.04;48.93
67738;BME280;54534;43.612;1.572;2022-11-20T03:23:59;99375.97;;;19.03;48.80
67738;BME280;54534;43.612;1.572;2022-11-20T03:26:26;99381.31;;;19.03;48.91
67738;BME280;54534;43.612;1.572;2022-11-20T03:28:54;99376.94;;;19.01;48.89
67738;BME280;54534;43.612;1.572;2022-11-20T03:31:22;99376.94;;;19.01;49.03
67738;BME280;54534;43.612;1.572;2022-11-20T03:33:48;99372.56;;;19.00;49.03
67738;BME280;54534;43.612;1.572;2022-11-20T03:36:15;99363.75;;;19.00;48.97
67738;BME280;54534;43.612;1.572;2022-11-20T03:38:41;99360.34;;;18.98;48.93
67738;BME280;54534;43.612;1.572;2022-11-20T03:41:15;99363.00;;;18.98;48.94
67738;BME280;54534;43.612;1.572;2022-11-20T03:43:41;99362.19;;;18.97;48.75
67738;BME280;54534;43.612;1.572;2022-11-20T03:46:07;99358.75;;;18.95;48.91
67738;BME280;54534;43.612;1.572;2022-11-20T03:48:33;99357.09;;;18.94;49.03
67738;BME280;54534;43.612;1.572;2022-11-20T03:53:40;99364.22;;;18.94;49.02
67738;BME280;54534;43.612;1.572;2022-11-20T03:56:07;99364.34;;;18.92;48.95
67738;BME280;54534;43.612;1.572;2022-11-20T03:58:33;99359.25;;;18.89;48.78
67738;BME280;54534;43.612;1.572;2022-11-20T04:01:04;99347.63;;;18.90;48.52
67738;BME280;54534;43.612;1.572;2022-11-20T04:03:30;99348.63;;;18.89;48.70
67738;BME280;54534;43.612;1.572;2022-11-20T04:06:05;99351.28;;;18.89;48.57
67738;BME280;54534;43.612;1.572;2022-11-20T04:08:31;99338.91;;;18.88;48.76
67738;BME280;54534;43.612;1.572;2022-11-20T04:10:56;99348.72;;;18.87;48.51
67738;BME280;54534;43.612;1.572;2022-11-20T04:13:21;99343.53;;;18.86;48.60
67738;BME280;54534;43.612;1.572;2022-11-20T04:15:47;99351.50;;;18.86;48.93
67738;BME280;54534;43.612;1.572;2022-11-20T04:18:12;99357.81;;;18.85;48.68
67738;BME280;54534;43.612;1.572;2022-11-20T04:20:38;99358.78;;;18.84;48.71
67738;BME280;54534;43.612;1.572;2022-11-20T04:23:03;99352.59;;;18.83;48.37
67738;BME280;54534;43.612;1.572;2022-11-20T04:25:28;99352.75;;;18.82;48.74
67738;BME280;54534;43.612;1.572;2022-11-20T04:27:54;99351.88;;;18.81;48.63
67738;BME280;54534;43.612;1.572;2022-11-20T04:30:19;99346.56;;;18.81;48.74
67738;BME280;54534;43.612;1.572;2022-11-20T04:32:45;99348.38;;;18.81;48.50
67738;BME280;54534;43.612;1.572;2022-11-20T04:35:10;99346.66;;;18.79;48.76
67738;BME280;54534;43.612;1.572;2022-11-20T04:37:36;99350.31;;;18.78;48.41
67738;BME280;54534;43.612;1.572;2022-11-20T04:40:01;99342.31;;;18.78;48.46
67738;BME280;54534;43.612;1.572;2022-11-20T04:42:26;99357.44;;;18.78;48.77
67738;BME280;54534;43.612;1.572;2022-11-20T04:44:55;99338.94;;;18.76;48.44
67738;BME280;54534;43.612;1.572;2022-11-20T04:47:21;99335.41;;;18.76;48.47
67738;BME280;54534;43.612;1.572;2022-11-20T04:49:46;99337.22;;;18.75;48.62
67738;BME280;54534;43.612;1.572;2022-11-20T04:52:12;99338.19;;;18.74;48.56
67738;BME280;54534;43.612;1.572;2022-11-20T04:54:37;99332.00;;;18.74;48.51
67738;BME280;54534;43.612;1.572;2022-11-20T04:57:03;99335.66;;;18.73;48.61
67738;BME280;54534;43.612;1.572;2022-11-20T04:59:28;99333.84;;;18.73;48.75
67738;BME280;54534;43.612;1.572;2022-11-20T05:01:53;99338.44;;;18.71;48.82
67738;BME280;54534;43.612;1.572;2022-11-20T05:04:19;99335.75;;;18.71;48.38
67738;BME280;54534;43.612;1.572;2022-11-20T05:06:44;99338.56;;;18.70;48.44
67738;BME280;54534;43.612;1.572;2022-11-20T05:09:11;99338.56;;;18.70;48.46
67738;BME280;54534;43.612;1.572;2022-11-20T05:11:36;99336.84;;;18.68;48.33
67738;BME280;54534;43.612;1.572;2022-11-20T05:14:02;99341.34;;;18.68;48.72
67738;BME280;54534;43.612;1.572;2022-11-20T05:16:27;99338.69;;;18.68;48.46
67738;BME280;54534;43.612;1.572;2022-11-20T05:18:55;99345.81;;;18.67;48.56
67738;BME280;54534;43.612;1.572;2022-11-20T05:21:21;99344.13;;;18.66;48.32
67738;BME280;54534;43.612;1.572;2022-11-20T05:23:47;99344.97;;;18.67;48.38
67738;BME280;54534;43.612;1.572;2022-11-20T05:26:15;99337.13;;;18.65;48.75
67738;BME280;54534;43.612;1.572;2022-11-20T05:28:40;99338.94;;;18.65;48.69
67738;BME280;54534;43.612;1.572;2022-11-20T05:31:14;99336.25;;;18.65;48.44
67738;BME280;54534;43.612;1.572;2022-11-20T05:33:41;99338.22;;;18.63;48.60
67738;BME280;54534;43.612;1.572;2022-11-20T05:36:07;99332.88;;;18.63;48.49
67738;BME280;54534;43.612;1.572;2022-11-20T05:38:33;99333.84;;;18.62;48.37
67738;BME280;54534;43.612;1.572;2022-11-20T05:41:14;99329.38;;;18.62;48.45
67738;BME280;54534;43.612;1.572;2022-11-20T05:43:42;99330.31;;;18.61;48.60
67738;BME280;54534;43.612;1.572;2022-11-20T05:46:10;99340.13;;;18.61;48.29
67738;BME280;54534;43.612;1.572;2022-11-20T05:48:37;99328.75;;;18.59;48.36
67738;BME280;54534;43.612;1.572;2022-11-20T05:51:05;99337.59;;;18.59;48.24
67738;BME280;54534;43.612;1.572;2022-11-20T05:53:32;99334.06;;;18.59;48.44
67738;BME280;54534;43.612;1.572;2022-11-20T05:58:28;99342.19;;;18.57;48.58
67738;BME280;54534;43.612;1.572;2022-11-20T06:00:53;99336.00;;;18.56;48.79
67738;BME280;54534;43.612;1.572;2022-11-20T06:03:19;99330.81;;;18.55;48.50
67738;BME280;54534;43.612;1.572;2022-11-20T06:05:45;99336.16;;;18.55;48.69
67738;BME280;54534;43.612;1.572;2022-11-20T06:08:10;99338.91;;;18.53;48.59
67738;BME280;54534;43.612;1.572;2022-11-20T06:10:35;99343.28;;;18.54;48.42
67738;BME280;54534;43.612;1.572;2022-11-20T06:13:01;99338.91;;;18.53;48.20
67738;BME280;54534;43.612;1.572;2022-11-20T06:15:26;99346.91;;;18.53;48.54
67738;BME280;54534;43.612;1.572;2022-11-20T06:17:53;99344.38;;;18.52;48.56
67738;BME280;54534;43.612;1.572;2022-11-20T06:20:19;99351.50;;;18.51;48.72
67738;BME280;54534;43.612;1.572;2022-11-20T06:22:44;99352.34;;;18.52;48.61
67738;BME280;54534;43.612;1.572;2022-11-20T06:25:10;99353.22;;;18.52;48.26
67738;BME280;54534;43.612;1.572;2022-11-20T06:27:35;99344.47;;;18.50;48.53
67738;BME280;54534;43.612;1.572;2022-11-20T06:30:00;99347.13;;;18.50;48.42
67738;BME280;54534;43.612;1.572;2022-11-20T06:32:26;99342.78;;;18.49;48.60
67738;BME280;54534;43.612;1.572;2022-11-20T06:34:51;99341.09;;;18.48;48.59
67738;BME280;54534;43.612;1.572;2022-11-20T06:37:17;99341.09;;;18.48;48.23
67738;BME280;54534;43.612;1.572;2022-11-20T06:39:42;99341.09;;;18.48;48.66
67738;BME280;54534;43.612;1.572;2022-11-20T06:42:07;99342.91;;;18.48;48.52
67738;BME280;54534;43.612;1.572;2022-11-20T06:44:33;99347.41;;;18.47;48.05
67738;BME280;54534;43.612;1.572;2022-11-20T06:46:58;99343.03;;;18.46;48.29
67738;BME280;54534;43.612;1.572;2022-11-20T06:49:24;99342.19;;;18.45;48.67
67738;BME280;54534;43.612;1.572;2022-11-20T06:51:50;99346.66;;;18.45;48.13
67738;BME280;54534;43.612;1.572;2022-11-20T06:54:15;99345.69;;;18.46;48.50
67738;BME280;54534;43.612;1.572;2022-11-20T06:56:41;99347.63;;;18.44;48.28
67738;BME280;54534;43.612;1.572;2022-11-20T06:59:07;99343.16;;;18.44;48.09
67738;BME280;54534;43.612;1.572;2022-11-20T07:01:32;99335.28;;;18.43;48.37
67738;BME280;54534;43.612;1.572;2022-11-20T07:03:58;99340.59;;;18.43;48.12
67738;BME280;54534;43.612;1.572;2022-11-20T07:06:23;99337.09;;;18.42;48.54
67738;BME280;54534;43.612;1.572;2022-11-20T07:08:50;99338.06;;;18.41;48.29
67738;BME280;54534;43.612;1.572;2022-11-20T07:11:17;99341.59;;;18.42;48.11
67738;BME280;54534;43.612;1.572;2022-11-20T07:13:42;99341.59;;;18.42;48.50
67738;BME280;54534;43.612;1.572;2022-11-20T07:16:08;99347.88;;;18.41;48.71
67738;BME280;54534;43.612;1.572;2022-11-20T07:18:34;99347.88;;;18.41;48.35
67738;BME280;54534;43.612;1.572;2022-11-20T07:21:05;99358.50;;;18.41;48.43
67738;BME280;54534;43.612;1.572;2022-11-20T07:23:32;99365.78;;;18.39;48.10
67738;BME280;54534;43.612;1.572;2022-11-20T07:25:57;99367.59;;;18.38;48.08
67738;BME280;54534;43.612;1.572;2022-11-20T07:28:23;99366.72;;;18.38;48.28
67738;BME280;54534;43.612;1.572;2022-11-20T07:30:52;99363.13;;;18.39;48.39
67738;BME280;54534;43.612;1.572;2022-11-20T07:33:18;99368.53;;;18.37;48.44
67738;BME280;54534;43.612;1.572;2022-11-20T07:35:44;99367.69;;;18.37;48.35
67738;BME280;54534;43.612;1.572;2022-11-20T07:38:10;99371.34;;;18.36;48.49
67738;BME280;54534;43.612;1.572;2022-11-20T07:40:35;99370.34;;;18.37;48.11
67738;BME280;54534;43.612;1.572;2022-11-20T07:43:01;99385.50;;;18.36;48.33
67738;BME280;54534;43.612;1.572;2022-11-20T07:45:26;99374.84;;;18.36;48.04
67738;BME280;54534;43.612;1.572;2022-11-20T07:47:51;99373.00;;;18.37;48.41
67738;BME280;54534;43.612;1.572;2022-11-20T07:50:18;99377.50;;;18.36;48.23
67738;BME280;54534;43.612;1.572;2022-11-20T07:52:43;99374.00;;;18.36;47.93
67738;BME280;54534;43.612;1.572;2022-11-20T07:55:09;99372.28;;;18.34;47.79
67738;BME280;54534;43.612;1.572;2022-11-20T07:57:35;99376.66;;;18.36;47.89
67738;BME280;54534;43.612;1.572;2022-11-20T08:00:01;99380.28;;;18.34;47.88
67738;BME280;54534;43.612;1.572;2022-11-20T08:02:26;99387.41;;;18.34;48.07
67738;BME280;54534;43.612;1.572;2022-11-20T08:04:52;99390.91;;;18.34;48.02
67738;BME280;54534;43.612;1.572;2022-11-20T08:07:17;99383.06;;;18.33;47.89
67738;BME280;54534;43.612;1.572;2022-11-20T08:09:42;99381.34;;;18.32;47.91
67738;BME280;54534;43.612;1.572;2022-11-20T08:12:09;99382.22;;;18.32;47.85
67738;BME280;54534;43.612;1.572;2022-11-20T08:15:00;99382.34;;;18.31;48.28
67738;BME280;54534;43.612;1.572;2022-11-20T08:17:26;99386.81;;;18.30;47.83
67738;BME280;54534;43.612;1.572;2022-11-20T08:19:51;99387.66;;;18.31;47.93
67738;BME280;54534;43.612;1.572;2022-11-20T08:22:16;99380.63;;;18.30;48.47
67738;BME280;54534;43.612;1.572;2022-11-20T08:24:42;99392.13;;;18.30;48.08
67738;BME280;54534;43.612;1.572;2022-11-20T08:27:08;99395.66;;;18.31;48.30
67738;BME280;54534;43.612;1.572;2022-11-20T08:29:33;99403.72;;;18.29;47.83
67738;BME280;54534;43.612;1.572;2022-11-20T08:31:59;99404.59;;;18.30;47.49
67738;BME280;54534;43.612;1.572;2022-11-20T08:34:24;99401.19;;;18.28;48.29
67738;BME280;54534;43.612;1.572;2022-11-20T08:36:49;99415.38;;;18.28;47.83
67738;BME280;54534;43.612;1.572;2022-11-20T08:39:15;99406.41;;;18.29;47.80
67738;BME280;54534;43.612;1.572;2022-11-20T08:41:40;99404.72;;;18.28;47.90
67738;BME280;54534;43.612;1.572;2022-11-20T08:44:06;99418.84;;;18.29;48.07
67738;BME280;54534;43.612;1.572;2022-11-20T08:46:35;99418.84;;;18.29;47.68
67738;BME280;54534;43.612;1.572;2022-11-20T08:49:05;99421.63;;;18.27;47.99
67738;BME280;54534;43.612;1.572;2022-11-20T08:51:31;99422.59;;;18.26;47.62
67738;BME280;54534;43.612;1.572;2022-11-20T08:53:57;99420.78;;;18.27;47.80
67738;BME280;54534;43.612;1.572;2022-11-20T08:56:22;99427.09;;;18.26;47.93
67738;BME280;54534;43.612;1.572;2022-11-20T08:58:50;99438.56;;;18.26;47.95
67738;BME280;54534;43.612;1.572;2022-11-20T09:01:16;99443.88;;;18.26;47.57
67738;BME280;54534;43.612;1.572;2022-11-20T09:03:41;99445.72;;;18.26;48.00
67738;BME280;54534;43.612;1.572;2022-11-20T09:06:07;99443.88;;;18.26;47.49
67738;BME280;54534;43.612;1.572;2022-11-20T09:08:33;99455.50;;;18.25;47.58
67738;BME280;54534;43.612;1.572;2022-11-20T09:10:59;99452.00;;;18.25;47.67
67738;BME280;54534;43.612;1.572;2022-11-20T09:13:26;99446.81;;;18.23;48.02
67738;BME280;54534;43.612;1.572;2022-11-20T09:15:57;99448.47;;;18.24;48.13
67738;BME280;54534;43.612;1.572;2022-11-20T09:18:26;99458.28;;;18.23;47.68
67738;BME280;54534;43.612;1.572;2022-11-20T09:20:55;99460.09;;;18.23;47.94
67738;BME280;54534;43.612;1.572;2022-11-20T09:23:21;99467.34;;;18.21;48.01
67738;BME280;54534;43.612;1.572;2022-11-20T09:25:46;99469.91;;;18.22;47.98
67738;BME280;54534;43.612;1.572;2022-11-20T09:28:11;99464.56;;;18.22;47.57
67738;BME280;54534;43.612;1.572;2022-11-20T09:30:37;99471.72;;;18.22;47.97
67738;BME280;54534;43.612;1.572;2022-11-20T09:33:04;99471.72;;;18.22;47.89
67738;BME280;54534;43.612;1.572;2022-11-20T09:35:30;99470.75;;;18.23;47.69
67738;BME280;54534;43.612;1.572;2022-11-20T09:37:55;99460.09;;;18.23;47.87
67738;BME280;54534;43.612;1.572;2022-11-20T09:40:23;99457.44;;;18.23;47.97
67738;BME280;54534;43.612;1.572;2022-11-20T09:43:01;99452.13;;;18.23;47.87
67738;BME280;54534;43.612;1.572;2022-11-20T09:51:01;99453.94;;;18.22;47.82
67738;BME280;54534;43.612;1.572;2022-11-20T09:56:19;99434.56;;;18.20;47.84
67738;BME280;54534;43.612;1.572;2022-11-20T09:58:48;99426.47;;;18.22;47.82
67738;BME280;54534;43.612;1.572;2022-11-20T10:01:16;99409.84;;;18.18;47.93
67738;BME280;54534;43.612;1.572;2022-11-20T10:04:38;99407.06;;;18.20;47.72
67738;BME280;54534;43.612;1.572;2022-11-20T10:09:41;99399.19;;;18.18;48.04
67738;BME280;54534;43.612;1.572;2022-11-20T10:15:12;99411.66;;;18.18;47.84
67738;BME280;54534;43.612;1.572;2022-11-20T10:25:57;99429.66;;;18.14;48.08
67738;BME280;54534;43.612;1.572;2022-11-20T10:31:17;99431.47;;;18.14;47.34
67738;BME280;54534;43.612;1.572;2022-11-20T10:33:50;99428.81;;;18.14;47.34
67738;BME280;54534;43.612;1.572;2022-11-20T10:36:27;99424.34;;;18.14;47.74
67738;BME280;54534;43.612;1.572;2022-11-20T10:39:00;99427.97;;;18.13;47.49
67738;BME280;54534;43.612;1.572;2022-11-20T10:41:34;99423.50;;;18.14;47.51
67738;BME280;54534;43.612;1.572;2022-11-20T10:44:11;99415.50;;;18.14;47.44
67738;BME280;54534;43.612;1.572;2022-11-20T10:46:47;99410.19;;;18.14;47.28
67738;BME280;54534;43.612;1.572;2022-11-20T10:49:14;99408.38;;;18.14;47.19
67738;BME280;54534;43.612;1.572;2022-11-20T10:51:59;99394.22;;;18.14;47.46
67738;BME280;54534;43.612;1.572;2022-11-20T11:00:01;99385.38;;;18.13;47.54
67738;BME280;54534;43.612;1.572;2022-11-20T11:02:34;99379.25;;;18.12;47.51
67738;BME280;54534;43.612;1.572;2022-11-20T11:05:10;99375.59;;;18.14;47.13
67738;BME280;54534;43.612;1.572;2022-11-20T11:07:39;99365.81;;;18.14;47.46
67738;BME280;54534;43.612;1.572;2022-11-20T11:10:39;99358.78;;;18.13;47.42
67738;BME280;54534;43.612;1.572;2022-11-20T11:13:28;99352.63;;;18.12;47.46
67738;BME280;54534;43.612;1.572;2022-11-20T11:15:54;99360.47;;;18.14;47.43
67738;BME280;54534;43.612;1.572;2022-11-20T11:20:54;99356.97;;;18.14;47.19
67738;BME280;54534;43.612;1.572;2022-11-20T11:25:59;99358.69;;;18.15;47.56
67738;BME280;54534;43.612;1.572;2022-11-20T11:28:25;99360.34;;;18.16;47.71
67738;BME280;54534;43.612;1.572;2022-11-20T11:30:53;99355.03;;;18.16;47.78
67738;BME280;54534;43.612;1.572;2022-11-20T11:33:26;99354.06;;;18.17;47.47
67738;BME280;54534;43.612;1.572;2022-11-20T11:35:56;99351.41;;;18.17;47.62
67738;BME280;54534;43.612;1.572;2022-11-20T11:38:44;99347.03;;;18.16;47.13
67738;BME280;54534;43.612;1.572;2022-11-20T11:41:31;99334.50;;;18.18;47.48
67738;BME280;54534;43.612;1.572;2022-11-20T11:44:04;99338.13;;;18.17;47.55
67738;BME280;54534;43.612;1.572;2022-11-20T11:46:58;99341.63;;;18.17;47.30
67738;BME280;54534;43.612;1.572;2022-11-20T11:49:24;99332.78;;;18.17;47.51
67738;BME280;54534;43.612;1.572;2022-11-20T11:54:32;99319.47;;;18.17;47.05
67738;BME280;54534;43.612;1.572;2022-11-20T11:57:03;99310.53;;;18.18;47.18
67738;BME280;54534;43.612;1.572;2022-11-20T12:05:22;99297.25;;;18.18;47.14
67738;BME280;54534;43.612;1.572;2022-11-20T12:08:03;99295.41;;;18.18;46.97
67738;BME280;54534;43.612;1.572;2022-11-20T12:10:51;99291.91;;;18.18;46.83
67738;BME280;54534;43.612;1.572;2022-11-20T12:13:44;99290.22;;;18.17;46.94
67738;BME280;54534;43.612;1.572;2022-11-20T12:16:15;99285.75;;;18.17;47.32
67738;BME280;54534;43.612;1.572;2022-11-20T12:18:42;99291.06;;;18.17;47.25
67738;BME280;54534;43.612;1.572;2022-11-20T12:34:56;99270.63;;;18.18;47.06
67738;BME280;54534;43.612;1.572;2022-11-20T12:37:36;99266.97;;;18.19;47.57
67738;BME280;54534;43.612;1.572;2022-11-20T12:40:44;99261.66;;;18.19;47.40
67738;BME280;54534;43.612;1.572;2022-11-20T12:43:27;99274.00;;;18.20;47.38
67738;BME280;54534;43.612;1.572;2022-11-20T12:46:30;99261.66;;;18.19;47.63
67738;BME280;54534;43.612;1.572;2022-11-20T12:59:48;99265.06;;;18.21;47.86
67738;BME280;54534;43.612;1.572;2022-11-20T13:07:27;99262.50;;;18.19;47.55
67738;BME280;54534;43.612;1.572;2022-11-20T13:09:53;99257.09;;;18.21;47.82
67738;BME280;54534;43.612;1.572;2022-11-20T13:14:56;99248.28;;;18.20;47.53
67738;BME280;54534;43.612;1.572;2022-11-20T13:17:43;99251.78;;;18.21;47.63
67738;BME280;54534;43.612;1.572;2022-11-20T13:20:16;99253.59;;;18.20;47.70
67738;BME280;54534;43.612;1.572;2022-11-20T13:22:47;99256.34;;;18.19;47.61
67738;BME280;54534;43.612;1.572;2022-11-20T13:25:26;99257.31;;;18.18;47.49
67738;BME280;54534;43.612;1.572;2022-11-20T13:27:52;99252.81;;;18.18;47.41
67738;BME280;54534;43.612;1.572;2022-11-20T13:30:23;99256.34;;;18.19;47.50
67738;BME280;54534;43.612;1.572;2022-11-20T13:32:53;99242.19;;;18.18;47.78
67738;BME280;54534;43.612;1.572;2022-11-20T13:35:26;99240.59;;;18.16;47.95
67738;BME280;54534;43.612;1.572;2022-11-20T13:40:28;99241.34;;;18.18;47.53
67738;BME280;54534;43.612;1.572;2022-11-20T13:45:25;99244.03;;;18.18;47.71
67738;BME280;54534;43.612;1.572;2022-11-20T13:47:52;99238.69;;;18.18;47.83
67738;BME280;54534;43.612;1.572;2022-11-20T13:50:18;99227.19;;;18.17;47.87
67738;BME280;54534;43.612;1.572;2022-11-20T13:53:15;99234.31;;;18.17;47.49
67738;BME280;54534;43.612;1.572;2022-11-20T13:56:00;99226.34;;;18.17;47.42
67738;BME280;54534;43.612;1.572;2022-11-20T13:58:40;99220.16;;;18.16;47.43
67738;BME280;54534;43.612;1.572;2022-11-20T14:01:15;99224.63;;;18.16;47.80
67738;BME280;54534;43.612;1.572;2022-11-20T14:03:42;99209.66;;;18.15;47.51
67738;BME280;54534;43.612;1.572;2022-11-20T14:06:27;99206.00;;;18.16;47.41
67738;BME280;54534;43.612;1.572;2022-11-20T14:08:53;99204.34;;;18.15;47.72
67738;BME280;54534;43.612;1.572;2022-11-20T14:11:27;99215.84;;;18.15;47.81
67738;BME280;54534;43.612;1.572;2022-11-20T14:14:04;99208.66;;;18.16;47.52
67738;BME280;54534;43.612;1.572;2022-11-20T14:16:38;99216.78;;;18.14;47.98
67738;BME280;54534;43.612;1.572;2022-11-20T14:24:33;99212.31;;;18.15;47.80
67738;BME280;54534;43.612;1.572;2022-11-20T14:26:59;99214.13;;;18.14;47.76
67738;BME280;54534;43.612;1.572;2022-11-20T14:29:29;99203.34;;;18.16;48.14
67738;BME280;54534;43.612;1.572;2022-11-20T14:31:58;99208.66;;;18.16;47.72
67738;BME280;54534;43.612;1.572;2022-11-20T14:34:25;99212.19;;;18.16;48.04
67738;BME280;54534;43.612;1.572;2022-11-20T14:36:57;99197.06;;;18.17;48.22
67738;BME280;54534;43.612;1.572;2022-11-20T14:39:31;99187.16;;;18.19;47.92
67738;BME280;54534;43.612;1.572;2022-11-20T14:41:58;99195.25;;;18.17;47.86
67738;BME280;54534;43.612;1.572;2022-11-20T14:44:27;99197.94;;;18.17;48.21
67738;BME280;54534;43.612;1.572;2022-11-20T14:46:54;99196.13;;;18.18;48.20